Time;durP1;ratioP1;P1;durP2;ratioP2;P2;SDS_P1;SDS_P2;PMS_P1;PMS_P2;Temp;Humidity;BMP_temperature;BMP_pressure;BME280_temperature;BME280_humidity;BME280_pressure;Samples;Min_cycle;Max_cycle;Signal;HPM_P1;HPM_P2
2021/05/05 00:52:16;;;;;;;9.68;1.90;;;6.80;88.50;;;;;;5131963;27;20054;-70
2021/05/05 00:54:42;;;;;;;9.60;1.93;;;6.80;88.40;;;;;;5132498;27;20470;-71
2021/05/05 00:57:09;;;;;;;7.97;1.63;;;6.80;88.40;;;;;;5132515;27;20631;-70
2021/05/05 00:59:34;;;;;;;10.67;1.90;;;6.80;88.50;;;;;;5132237;27;20373;-69
2021/05/05 01:02:01;;;;;;;8.70;2.30;;;6.80;88.50;;;;;;5132446;27;20649;-69
2021/05/05 01:04:26;;;;;;;11.90;1.87;;;6.80;88.50;;;;;;5131906;27;20548;-70
2021/05/05 01:06:53;;;;;;;8.93;1.87;;;6.80;88.40;;;;;;5132192;27;20293;-70
2021/05/05 01:09:19;;;;;;;9.23;2.07;;;6.80;88.60;;;;;;5132708;27;20126;-71
2021/05/05 01:11:45;;;;;;;12.10;2.53;;;6.80;88.40;;;;;;5131871;27;20385;-70
2021/05/05 01:14:11;;;;;;;11.20;1.97;;;6.80;88.40;;;;;;5132719;27;20043;-70
2021/05/05 01:16:37;;;;;;;7.37;1.80;;;6.80;88.40;;;;;;5132268;27;20300;-71
2021/05/05 01:19:04;;;;;;;8.80;1.80;;;6.80;88.40;;;;;;5131469;27;20130;-70
2021/05/05 01:21:30;;;;;;;10.60;1.93;;;6.80;88.40;;;;;;5132365;27;20311;-70
2021/05/05 01:23:57;;;;;;;9.33;1.93;;;6.80;88.40;;;;;;5132480;27;20434;-69
2021/05/05 01:26:22;;;;;;;12.00;2.30;;;6.70;88.40;;;;;;5131658;27;20391;-70
2021/05/05 01:28:48;;;;;;;12.43;2.20;;;6.70;88.40;;;;;;5132339;27;20398;-70
2021/05/05 01:31:16;;;;;;;9.77;2.30;;;6.70;88.40;;;;;;5132392;27;20054;-71
2021/05/05 01:33:42;;;;;;;11.40;2.23;;;6.70;88.50;;;;;;5131457;27;20044;-70
2021/05/05 01:36:11;;;;;;;15.67;2.50;;;6.70;88.40;;;;;;5132642;27;20303;-70
2021/05/05 01:38:37;;;;;;;12.17;2.10;;;6.70;88.40;;;;;;5131997;27;20706;-70
2021/05/05 01:41:03;;;;;;;10.37;2.27;;;6.80;88.40;;;;;;5132139;28;20379;-70
2021/05/05 01:43:30;;;;;;;11.90;1.97;;;6.80;88.30;;;;;;5132263;27;20047;-70
2021/05/05 01:45:57;;;;;;;12.33;2.53;;;6.70;88.40;;;;;;5131757;27;20305;-70
2021/05/05 01:48:22;;;;;;;8.67;1.97;;;6.80;88.40;;;;;;5131631;27;20741;-69
2021/05/05 01:50:48;;;;;;;9.73;2.30;;;6.80;88.50;;;;;;5131989;28;20301;-71
2021/05/05 01:53:17;;;;;;;12.63;2.30;;;6.80;88.50;;;;;;5131610;27;20051;-71
2021/05/05 01:55:45;;;;;;;9.33;1.97;;;6.80;88.70;;;;;;5131721;27;20043;-69
2021/05/05 01:58:11;;;;;;;9.37;1.93;;;6.80;88.50;;;;;;5132343;27;20312;-70
2021/05/05 02:00:37;;;;;;;7.33;2.00;;;6.80;88.40;;;;;;5131430;27;20764;-70
2021/05/05 02:03:02;;;;;;;11.73;2.20;;;6.80;88.40;;;;;;5131586;27;20054;-71
2021/05/05 02:05:29;;;;;;;10.90;2.17;;;6.90;88.70;;;;;;5131721;27;20464;-70
2021/05/05 02:07:55;;;;;;;8.13;2.07;;;6.90;88.50;;;;;;5131024;27;20342;-70
2021/05/05 02:10:21;;;;;;;12.20;2.60;;;6.90;88.50;;;;;;5131851;27;20074;-70
2021/05/05 02:12:48;;;;;;;11.00;2.10;;;6.90;88.60;;;;;;5132012;27;20055;-71
2021/05/05 02:15:18;;;;;;;9.17;2.23;;;6.90;88.70;;;;;;5131260;27;20378;-71
2021/05/05 02:17:44;;;;;;;13.50;2.50;;;6.90;88.60;;;;;;5131945;27;20328;-70
2021/05/05 02:20:12;;;;;;;12.97;2.37;;;6.90;88.60;;;;;;5132070;27;20704;-71
2021/05/05 02:22:39;;;;;;;8.07;1.97;;;6.90;88.50;;;;;;5131348;27;20133;-71
2021/05/05 02:25:06;;;;;;;16.60;3.13;;;6.90;88.70;;;;;;5132938;27;20289;-71
2021/05/05 02:27:33;;;;;;;10.97;3.00;;;6.90;88.60;;;;;;5135370;27;20293;-71
2021/05/05 02:29:58;;;;;;;15.47;3.13;;;6.90;88.50;;;;;;5134469;27;20773;-71
2021/05/05 02:32:25;;;;;;;14.27;3.07;;;6.90;88.50;;;;;;5135493;27;20303;-71
2021/05/05 02:34:54;;;;;;;12.07;2.33;;;6.90;88.50;;;;;;5135476;27;20436;-71
2021/05/05 02:37:20;;;;;;;9.60;2.33;;;6.80;88.40;;;;;;5135054;27;20297;-70
2021/05/05 02:39:46;;;;;;;14.63;3.23;;;6.80;88.30;;;;;;5135161;27;20299;-70
2021/05/05 02:42:14;;;;;;;9.03;1.80;;;6.80;88.30;;;;;;5134887;27;20047;-70
2021/05/05 02:44:41;;;;;;;8.93;2.17;;;6.70;88.30;;;;;;5135005;27;20306;-71
2021/05/05 02:47:07;;;;;;;10.10;2.40;;;6.70;88.40;;;;;;5135264;27;20646;-71
2021/05/05 02:49:33;;;;;;;13.23;2.60;;;6.70;88.40;;;;;;5134789;27;20296;-71
2021/05/05 02:52:00;;;;;;;8.43;1.67;;;6.60;88.60;;;;;;5134473;27;20396;-72
2021/05/05 02:54:26;;;;;;;13.60;2.07;;;6.70;89.00;;;;;;5135099;27;20057;-71
2021/05/05 02:56:52;;;;;;;10.97;1.80;;;6.60;89.40;;;;;;5134219;27;20768;-70
2021/05/05 02:59:18;;;;;;;13.07;2.50;;;6.60;89.70;;;;;;5134725;27;20342;-71
2021/05/05 03:01:44;;;;;;;14.10;2.40;;;6.60;89.70;;;;;;5135084;27;20074;-71
2021/05/05 03:04:14;;;;;;;7.60;2.17;;;6.50;89.80;;;;;;5133892;27;20404;-71
2021/05/05 03:06:39;;;;;;;10.93;2.10;;;6.50;89.90;;;;;;5135151;27;20375;-70
2021/05/05 03:09:06;;;;;;;9.87;2.20;;;6.40;90.00;;;;;;5134913;27;20058;-70
2021/05/05 03:11:32;;;;;;;11.60;2.33;;;6.40;90.00;;;;;;5133872;27;20050;-70
2021/05/05 03:13:59;;;;;;;11.57;2.50;;;6.40;90.00;;;;;;5134714;27;20388;-71
2021/05/05 03:16:25;;;;;;;7.57;1.70;;;6.40;90.10;;;;;;5134662;27;20687;-72
2021/05/05 03:18:51;;;;;;;17.37;2.70;;;6.30;90.00;;;;;;5133743;27;20313;-70
2021/05/05 03:21:18;;;;;;;10.53;2.50;;;6.40;90.00;;;;;;5134675;27;20427;-71
2021/05/05 03:23:43;;;;;;;11.63;2.77;;;6.30;90.00;;;;;;5134390;27;20300;-70
2021/05/05 03:26:09;;;;;;;11.80;2.07;;;6.30;89.90;;;;;;5133750;27;20314;-71
2021/05/05 03:28:35;;;;;;;14.23;2.80;;;6.30;89.80;;;;;;5133288;27;20051;-70
2021/05/05 03:31:00;;;;;;;13.00;2.40;;;6.40;89.80;;;;;;5134369;27;20047;-71
2021/05/05 03:33:26;;;;;;;15.40;4.17;;;6.40;89.80;;;;;;5133477;27;20088;-71
2021/05/05 03:35:52;;;;;;;8.00;2.37;;;6.30;89.80;;;;;;5134057;27;20095;-71
2021/05/05 03:38:20;;;;;;;14.97;3.27;;;6.40;89.90;;;;;;5133532;27;20055;-70
2021/05/05 03:40:47;;;;;;;12.47;2.43;;;6.40;89.90;;;;;;5133644;27;20300;-69
2021/05/05 03:43:13;;;;;;;15.37;2.70;;;6.50;89.80;;;;;;5133924;27;20050;-70
2021/05/05 03:45:39;;;;;;;17.70;2.90;;;6.50;89.70;;;;;;5133912;27;20292;-70
2021/05/05 03:48:07;;;;;;;21.47;3.57;;;6.50;89.70;;;;;;5134192;27;20180;-70
2021/05/05 03:50:34;;;;;;;15.70;2.93;;;6.50;89.70;;;;;;5133634;27;20831;-70
2021/05/05 03:53:00;;;;;;;18.80;4.50;;;6.60;89.90;;;;;;5131543;27;20324;-70
2021/05/05 03:55:25;;;;;;;13.93;2.60;;;6.60;89.70;;;;;;5133657;27;20377;-70
2021/05/05 03:57:52;;;;;;;11.40;4.00;;;6.60;89.80;;;;;;5133778;27;20047;-70
2021/05/05 04:00:18;;;;;;;15.97;3.20;;;6.50;90.00;;;;;;5132908;27;20296;-70
2021/05/05 04:02:44;;;;;;;18.10;2.73;;;6.50;90.10;;;;;;5133383;27;20506;-69
2021/05/05 04:05:10;;;;;;;16.03;3.23;;;6.50;90.10;;;;;;5134059;27;20392;-69
2021/05/05 04:07:36;;;;;;;25.67;3.57;;;6.50;90.20;;;;;;5132585;27;20043;-69
2021/05/05 04:10:04;;;;;;;21.93;4.83;;;6.50;90.30;;;;;;5133357;27;20296;-70
2021/05/05 04:12:29;;;;;;;13.90;2.60;;;6.60;90.30;;;;;;5133506;27;20092;-69
2021/05/05 04:14:56;;;;;;;13.50;2.27;;;6.60;90.30;;;;;;5132669;27;20289;-69
2021/05/05 04:17:24;;;;;;;12.17;2.37;;;6.50;90.30;;;;;;5133717;27;20047;-69
2021/05/05 04:19:52;;;;;;;12.80;3.60;;;6.50;90.40;;;;;;5133298;27;20325;-69
2021/05/05 04:22:17;;;;;;;17.57;3.27;;;6.40;90.50;;;;;;5132331;27;20320;-69
2021/05/05 04:24:43;;;;;;;13.47;3.67;;;6.40;90.70;;;;;;5133271;27;20784;-70
2021/05/05 04:27:09;;;;;;;17.80;3.17;;;6.40;90.70;;;;;;5133645;27;20088;-69
2021/05/05 04:29:34;;;;;;;14.70;2.60;;;6.40;90.70;;;;;;5132508;27;20163;-69
2021/05/05 04:32:00;;;;;;;19.77;2.97;;;6.40;90.70;;;;;;5133034;27;20051;-70
2021/05/05 04:34:26;;;;;;;12.43;2.43;;;6.40;90.60;;;;;;5133079;27;20047;-69
2021/05/05 04:36:52;;;;;;;12.43;2.63;;;6.50;90.60;;;;;;5132523;27;20067;-69
2021/05/05 04:39:18;;;;;;;14.33;2.90;;;6.50;90.60;;;;;;5132807;27;20327;-69
2021/05/05 04:41:43;;;;;;;16.67;2.90;;;6.50;90.60;;;;;;5132385;27;20653;-69
2021/05/05 04:44:09;;;;;;;13.97;3.97;;;6.50;90.50;;;;;;5133122;27;20395;-69
2021/05/05 04:46:35;;;;;;;10.33;2.33;;;6.50;90.40;;;;;;5132929;27;20475;-69
2021/05/05 04:49:01;;;;;;;16.57;2.83;;;6.60;90.40;;;;;;5131696;27;20063;-68
2021/05/05 04:51:26;;;;;;;11.00;2.83;;;6.60;90.40;;;;;;5132014;27;20453;-69
2021/05/05 04:53:52;;;;;;;12.40;2.93;;;6.60;90.30;;;;;;5132650;27;20309;-69
2021/05/05 04:56:18;;;;;;;13.90;3.60;;;6.60;90.20;;;;;;5132119;27;20489;-69
2021/05/05 04:58:44;;;;;;;14.77;3.80;;;6.60;90.20;;;;;;5132721;27;20070;-69
2021/05/05 05:01:10;;;;;;;16.87;2.73;;;6.70;90.20;;;;;;5132683;27;20306;-71
2021/05/05 05:03:36;;;;;;;12.90;3.17;;;6.70;90.00;;;;;;5131874;27;20489;-70
2021/05/05 05:06:01;;;;;;;16.03;3.67;;;6.70;89.90;;;;;;5132493;27;20047;-69
2021/05/05 05:08:27;;;;;;;18.40;3.83;;;6.70;89.80;;;;;;5132084;27;20039;-69
2021/05/05 05:10:53;;;;;;;17.03;3.40;;;6.80;89.80;;;;;;5131960;27;20073;-70
2021/05/05 05:13:18;;;;;;;18.50;3.37;;;6.80;89.70;;;;;;5132660;27;20047;-70
2021/05/05 05:15:44;;;;;;;16.10;2.87;;;6.80;89.60;;;;;;5132125;27;20071;-69
2021/05/05 05:18:10;;;;;;;13.80;3.50;;;6.80;89.60;;;;;;5131736;27;20047;-70
2021/05/05 05:20:35;;;;;;;13.87;3.10;;;6.80;89.70;;;;;;5132567;27;20043;-70
2021/05/05 05:23:01;;;;;;;9.37;2.57;;;6.70;89.50;;;;;;5132062;28;20467;-69
2021/05/05 05:25:27;;;;;;;8.37;2.07;;;6.70;89.40;;;;;;5131706;28;20498;-69
2021/05/05 05:27:54;;;;;;;14.60;2.10;;;6.60;89.60;;;;;;5132333;27;20103;-69
2021/05/05 05:30:21;;;;;;;15.23;2.40;;;6.60;89.50;;;;;;5132414;27;20296;-69
2021/05/05 05:32:47;;;;;;;10.40;2.10;;;6.60;89.50;;;;;;5131670;27;20296;-70
2021/05/05 05:35:13;;;;;;;14.13;2.40;;;6.60;89.50;;;;;;5132091;27;20425;-70
2021/05/05 05:37:39;;;;;;;13.27;2.90;;;6.60;89.50;;;;;;5132034;27;20054;-70
2021/05/05 05:40:06;;;;;;;15.30;2.80;;;6.70;89.60;;;;;;5131585;27;20301;-70
2021/05/05 05:42:32;;;;;;;15.57;3.03;;;6.70;89.60;;;;;;5132161;27;20039;-70
2021/05/05 05:44:58;;;;;;;14.20;2.70;;;6.80;89.20;;;;;;5131621;27;20292;-69
2021/05/05 05:47:24;;;;;;;12.57;3.20;;;6.90;89.00;;;;;;5131799;27;20316;-70
2021/05/05 05:49:49;;;;;;;22.07;3.67;;;7.00;88.80;;;;;;5132215;28;20055;-70
2021/05/05 05:52:15;;;;;;;16.83;2.50;;;7.10;88.60;;;;;;5131223;28;20043;-69
2021/05/05 05:54:42;;;;;;;13.77;2.43;;;7.20;88.00;;;;;;5132012;27;20127;-70
2021/05/05 05:57:08;;;;;;;14.37;2.67;;;7.30;87.80;;;;;;5132516;27;20379;-70
2021/05/05 05:59:34;;;;;;;9.30;2.03;;;7.40;87.70;;;;;;5124649;27;20341;-74
2021/05/05 06:01:59;;;;;;;12.13;2.00;;;7.50;87.50;;;;;;5135090;27;20293;-72
2021/05/05 06:04:25;;;;;;;13.73;2.40;;;7.70;86.80;;;;;;5133362;27;20392;-68
2021/05/05 06:06:51;;;;;;;12.87;2.30;;;7.70;86.00;;;;;;5131787;27;20491;-68
2021/05/05 06:09:16;;;;;;;11.87;2.50;;;7.80;86.00;;;;;;5132334;27;20051;-68
2021/05/05 06:11:42;;;;;;;11.13;2.37;;;7.80;85.60;;;;;;5132355;27;20479;-68
2021/05/05 06:14:08;;;;;;;16.73;2.67;;;7.80;85.60;;;;;;5132034;27;20360;-68
2021/05/05 06:16:34;;;;;;;14.73;3.03;;;7.80;85.80;;;;;;5132299;27;20040;-69
2021/05/05 06:19:00;;;;;;;18.83;2.20;;;7.90;85.60;;;;;;5132187;27;20313;-68
2021/05/05 06:21:26;;;;;;;14.40;2.70;;;7.90;85.50;;;;;;5131477;27;20072;-68
2021/05/05 06:23:52;;;;;;;9.17;2.57;;;7.90;85.60;;;;;;5132104;27;20125;-68
2021/05/05 06:26:19;;;;;;;18.60;2.77;;;7.90;85.60;;;;;;5132214;27;20039;-68
2021/05/05 06:28:44;;;;;;;15.77;2.83;;;7.90;85.50;;;;;;5131531;27;20387;-68
2021/05/05 06:31:10;;;;;;;10.63;2.57;;;8.00;85.20;;;;;;5132384;27;20438;-69
2021/05/05 06:33:36;;;;;;;10.43;2.20;;;8.00;85.20;;;;;;5131878;27;20047;-68
2021/05/05 06:36:02;;;;;;;17.43;2.73;;;8.10;85.00;;;;;;5131517;27;20054;-68
2021/05/05 06:38:28;;;;;;;13.57;3.47;;;8.10;85.00;;;;;;5132101;27;20046;-68
2021/05/05 06:40:53;;;;;;;16.63;2.53;;;8.10;84.30;;;;;;5132080;27;20297;-68
2021/05/05 06:43:19;;;;;;;12.10;2.73;;;8.10;84.60;;;;;;5131274;27;20043;-68
2021/05/05 06:45:45;;;;;;;18.47;3.23;;;8.20;84.50;;;;;;5132130;27;20070;-68
2021/05/05 06:48:11;;;;;;;11.13;2.20;;;8.30;84.30;;;;;;5131653;27;20401;-68
2021/05/05 06:50:37;;;;;;;17.73;2.97;;;8.40;83.70;;;;;;5131457;27;20517;-69
2021/05/05 06:53:02;;;;;;;14.50;3.57;;;8.50;83.00;;;;;;5131670;27;20051;-68
2021/05/05 06:55:28;;;;;;;10.10;2.47;;;8.50;83.40;;;;;;5131134;27;20365;-69
2021/05/05 06:57:54;;;;;;;13.83;3.57;;;8.30;83.20;;;;;;5131525;27;20096;-70
2021/05/05 07:00:22;;;;;;;11.23;3.67;;;8.10;83.90;;;;;;5131693;27;20096;-68
2021/05/05 07:02:48;;;;;;;16.43;3.20;;;8.00;84.60;;;;;;5130755;27;20377;-70
2021/05/05 07:05:14;;;;;;;14.17;2.80;;;7.80;85.20;;;;;;5131480;27;20816;-69
2021/05/05 07:07:40;;;;;;;11.80;2.27;;;7.70;85.80;;;;;;5131735;27;20047;-68
2021/05/05 07:10:09;;;;;;;16.10;3.20;;;7.70;86.20;;;;;;5131094;27;20728;-68
2021/05/05 07:12:35;;;;;;;13.17;2.43;;;7.60;86.20;;;;;;5131296;27;20321;-69
2021/05/05 07:15:00;;;;;;;12.50;2.43;;;7.60;86.50;;;;;;5131574;27;20767;-68
2021/05/05 07:17:26;;;;;;;9.47;2.60;;;7.50;86.80;;;;;;5130626;27;20050;-70
2021/05/05 07:19:53;;;;;;;16.40;3.40;;;7.50;86.90;;;;;;5131456;27;20043;-68
2021/05/05 07:22:19;;;;;;;8.77;3.20;;;7.60;87.60;;;;;;5131449;27;20138;-69
2021/05/05 07:24:46;;;;;;;14.20;3.57;;;8.00;87.50;;;;;;5130637;27;20291;-68
2021/05/05 07:27:13;;;;;;;12.37;2.43;;;8.40;87.20;;;;;;5131603;27;20387;-68
2021/05/05 07:29:39;;;;;;;10.83;2.17;;;8.80;86.40;;;;;;5131413;27;20412;-68
2021/05/05 07:32:06;;;;;;;9.63;2.50;;;9.10;86.00;;;;;;5130495;27;20305;-68
2021/05/05 07:34:32;;;;;;;12.93;3.00;;;9.30;85.30;;;;;;5131112;27;20293;-68
2021/05/05 07:37:08;;;;;;;12.87;3.87;;;9.40;85.30;;;;;;5131073;27;20300;-68
2021/05/05 07:45:10;;;;;;;15.87;2.67;;;9.70;83.90;;;;;;5130135;27;20354;-68
2021/05/05 07:47:39;;;;;;;12.57;2.30;;;9.80;83.40;;;;;;5130827;27;20707;-68
2021/05/05 07:50:08;;;;;;;9.30;2.30;;;9.80;82.30;;;;;;5130719;27;20509;-68
2021/05/05 07:52:34;;;;;;;14.00;2.97;;;9.60;81.50;;;;;;5129799;27;20566;-68
2021/05/05 07:55:01;;;;;;;10.17;2.27;;;9.30;81.80;;;;;;5130594;27;20478;-67
2021/05/05 07:57:27;;;;;;;9.40;3.23;;;9.10;82.50;;;;;;5130495;27;20049;-68
2021/05/05 07:59:53;;;;;;;14.17;2.90;;;9.00;83.00;;;;;;5129837;27;20660;-70
2021/05/05 08:02:19;;;;;;;8.77;2.37;;;9.00;83.50;;;;;;5130558;27;20053;-68
2021/05/05 08:04:51;;;;;;;8.70;1.80;;;9.10;83.90;;;;;;5130519;27;20301;-68
2021/05/05 08:07:18;;;;;;;10.90;1.80;;;9.20;83.40;;;;;;5129741;27;20043;-68
2021/05/05 08:09:45;;;;;;;8.17;1.57;;;9.30;83.00;;;;;;5133276;27;20354;-69
2021/05/05 08:12:12;;;;;;;4.90;1.40;;;9.50;82.50;;;;;;5134002;27;20292;-68
2021/05/05 08:14:39;;;;;;;5.47;1.73;;;9.70;82.10;;;;;;5132728;27;20055;-70
2021/05/05 08:17:05;;;;;;;6.43;1.57;;;9.90;82.10;;;;;;5133528;27;20039;-70
2021/05/05 08:19:31;;;;;;;6.27;1.93;;;9.90;81.50;;;;;;5133142;27;20103;-69
2021/05/05 08:21:56;;;;;;;9.27;1.83;;;9.60;80.90;;;;;;5132719;27;20490;-69
2021/05/05 08:24:22;;;;;;;9.27;2.00;;;9.40;81.70;;;;;;5132726;27;20043;-69
2021/05/05 08:26:48;;;;;;;7.67;1.60;;;9.20;82.20;;;;;;5132649;27;20039;-70
2021/05/05 08:29:13;;;;;;;6.53;1.47;;;8.80;82.50;;;;;;5132837;27;20174;-69
2021/05/05 08:31:39;;;;;;;5.57;1.50;;;8.50;83.00;;;;;;5132174;27;20483;-68
2021/05/05 08:34:05;;;;;;;9.37;1.93;;;8.40;84.10;;;;;;5131241;27;20039;-67
2021/05/05 08:36:31;;;;;;;7.87;2.33;;;8.30;84.80;;;;;;5132213;27;20042;-68
2021/05/05 08:38:57;;;;;;;6.47;2.20;;;8.20;85.20;;;;;;5132300;27;20043;-68
2021/05/05 08:41:23;;;;;;;11.37;2.17;;;8.20;85.70;;;;;;5131598;27;20300;-67
2021/05/05 08:43:50;;;;;;;7.00;2.43;;;8.20;85.90;;;;;;5132356;27;20297;-67
2021/05/05 08:46:17;;;;;;;10.87;2.00;;;8.10;86.30;;;;;;5132645;27;20288;-67
2021/05/05 08:48:45;;;;;;;8.53;2.20;;;8.10;86.60;;;;;;5131899;27;20301;-67
2021/05/05 08:51:12;;;;;;;9.27;2.20;;;8.30;87.40;;;;;;5132272;27;20380;-67
2021/05/05 08:53:41;;;;;;;7.87;2.73;;;8.50;87.60;;;;;;5132111;27;20303;-73
2021/05/05 08:56:07;;;;;;;8.93;2.10;;;8.60;87.10;;;;;;5131600;27;20787;-70
2021/05/05 08:58:32;;;;;;;7.93;1.70;;;8.60;85.90;;;;;;5132095;27;20317;-67
2021/05/05 09:01:00;;;;;;;5.90;1.70;;;8.60;86.10;;;;;;5124835;27;20053;-68
2021/05/05 09:03:31;;;;;;;6.50;2.00;;;8.50;86.00;;;;;;5127409;27;20092;-68
2021/05/05 09:06:03;;;;;;;5.87;1.33;;;8.50;86.20;;;;;;5127959;27;20353;-69
2021/05/05 09:08:32;;;;;;;7.63;1.93;;;8.50;86.00;;;;;;5128868;27;20354;-69
2021/05/05 09:11:04;;;;;;;7.00;2.13;;;8.50;85.30;;;;;;5119322;27;20362;-67
2021/05/05 09:13:50;;;;;;;7.65;1.20;;;8.50;86.10;;;;;;5120135;27;20298;-66
2021/05/05 09:16:18;;;;;;;4.70;1.53;;;8.30;85.80;;;;;;5124747;27;20046;-67
2021/05/05 09:18:55;;;;;;;5.00;1.20;;;8.20;85.90;;;;;;5128423;27;20332;-67
2021/05/05 09:21:30;;;;;;;3.53;0.93;;;8.10;85.50;;;;;;5132171;27;20300;-66
2021/05/05 09:24:17;;;;;;;1.37;0.70;;;8.00;85.70;;;;;;5131076;28;20292;-66
2021/05/05 09:26:44;;;;;;;3.33;1.13;;;8.00;85.30;;;;;;5111276;28;20308;-67
2021/05/05 09:29:10;;;;;;;2.70;1.10;;;8.00;86.60;;;;;;5111779;28;20282;-68
2021/05/05 09:31:38;;;;;;;2.70;0.80;;;8.10;85.60;;;;;;5110673;28;20308;-67
2021/05/05 09:34:07;;;;;;;5.30;1.00;;;8.30;85.60;;;;;;5112617;28;20301;-66
2021/05/05 09:36:33;;;;;;;6.33;1.43;;;8.50;85.60;;;;;;5115377;28;20817;-67
2021/05/05 09:39:02;;;;;;;2.73;1.00;;;8.80;85.50;;;;;;5114688;28;20367;-67
2021/05/05 09:41:32;;;;;;;5.70;1.30;;;9.10;84.80;;;;;;5115779;27;20105;-67
2021/05/05 09:44:08;;;;;;;5.43;1.00;;;9.20;84.10;;;;;;5115214;27;20301;-68
2021/05/05 09:46:50;;;;;;;4.73;1.53;;;9.30;83.60;;;;;;5115255;27;20378;-68
2021/05/05 09:49:19;;;;;;;;;;;9.30;83.60;;;;;;5115882;28;20374;-67
2021/05/05 09:51:59;;;;;;;8.23;1.80;;;9.40;82.80;;;;;;5114353;28;19920;-70
2021/05/05 09:54:37;;;;;;;6.07;1.63;;;9.40;82.80;;;;;;5115562;28;20329;-68
2021/05/05 09:57:24;;;;;;;9.03;1.67;;;9.40;83.10;;;;;;5114986;28;20300;-67
2021/05/05 10:00:15;;;;;;;5.63;1.83;;;9.40;83.70;;;;;;5114318;27;20297;-71
2021/05/05 10:02:51;;;;;;;7.87;1.80;;;9.40;83.90;;;;;;5115451;28;20293;-70
2021/05/05 10:05:20;;;;;;;5.97;1.60;;;9.50;84.60;;;;;;5114132;28;20754;-70
2021/05/05 10:07:49;;;;;;;9.60;2.20;;;9.70;83.40;;;;;;5115061;28;20627;-68
2021/05/05 10:10:15;;;;;;;6.87;1.87;;;9.70;82.50;;;;;;5115012;28;20366;-69
2021/05/05 10:12:47;;;;;;;9.80;2.55;;;9.50;82.80;;;;;;5122481;27;20301;-68
2021/05/05 10:15:15;;;;;;;11.93;2.13;;;9.50;84.20;;;;;;5135750;27;20047;-69
2021/05/05 10:17:44;;;;;;;8.47;1.70;;;9.70;83.40;;;;;;5135465;27;20410;-68
2021/05/05 10:20:13;;;;;;;11.17;2.10;;;10.00;81.90;;;;;;5134630;27;20811;-68
2021/05/05 10:22:39;;;;;;;8.73;1.73;;;10.30;80.80;;;;;;5121143;27;20327;-68
2021/05/05 10:25:05;;;;;;;6.47;1.50;;;10.50;79.40;;;;;;5114949;28;20051;-67
2021/05/05 10:27:32;;;;;;;8.40;1.73;;;10.30;78.20;;;;;;5113931;27;20043;-67
2021/05/05 10:29:59;;;;;;;4.33;1.27;;;10.00;79.50;;;;;;5114918;28;20374;-67
2021/05/05 10:32:31;;;;;;;6.70;1.93;;;9.70;80.20;;;;;;5127323;27;20047;-67
2021/05/05 10:34:57;;;;;;;6.00;1.52;;;9.60;80.60;;;;;;5134742;27;20300;-70
2021/05/05 10:37:49;;;;;;;7.50;1.83;;;9.50;81.00;;;;;;5134053;27;20464;-67
2021/05/05 10:40:32;;;;;;;8.43;2.27;;;9.50;80.80;;;;;;5133370;27;20829;-67
2021/05/05 10:43:00;;;;;;;12.93;2.30;;;9.60;81.40;;;;;;5134670;27;20295;-67
2021/05/05 10:45:38;;;;;;;11.50;2.47;;;9.80;81.40;;;;;;5134052;27;20458;-67
2021/05/05 10:48:05;;;;;;;12.70;2.27;;;10.00;80.10;;;;;;5133874;27;20043;-67
2021/05/05 10:50:55;;;;;;;10.20;2.20;;;10.10;80.20;;;;;;5134828;27;20050;-68
2021/05/05 10:53:26;;;;;;;14.60;3.00;;;10.30;77.40;;;;;;5134352;27;20138;-69
2021/05/05 10:55:59;;;;;;;15.73;3.60;;;10.30;78.50;;;;;;5133981;27;20405;-69
2021/05/05 10:58:30;;;;;;;10.90;2.87;;;10.20;78.60;;;;;;5134273;27;20134;-70
2021/05/05 11:01:06;;;;;;;6.57;2.25;;;10.20;78.50;;;;;;5134398;27;20043;-69
2021/05/05 11:03:52;;;;;;;15.33;2.47;;;10.40;77.70;;;;;;5133638;27;20519;-70
2021/05/05 11:06:30;;;;;;;12.60;2.83;;;10.50;76.20;;;;;;5134553;27;20047;-69
2021/05/05 11:09:17;;;;;;;12.20;2.53;;;10.60;75.00;;;;;;5133695;27;20098;-69
2021/05/05 11:11:43;;;;;;;11.73;2.60;;;10.50;74.10;;;;;;5127091;27;20050;-70
2021/05/05 11:14:09;;;;;;;14.93;2.40;;;10.50;75.50;;;;;;5134534;27;20126;-69
2021/05/05 11:16:59;;;;;;;13.37;2.60;;;10.50;74.90;;;;;;5133761;27;20127;-69
2021/05/05 11:19:37;;;;;;;11.33;2.50;;;10.50;72.50;;;;;;5134144;27;20072;-70
2021/05/05 11:22:27;;;;;;;12.97;2.37;;;10.50;73.80;;;;;;5134405;27;20156;-69
2021/05/05 11:24:53;;;;;;;12.87;2.30;;;10.60;71.40;;;;;;5128293;27;20054;-68
2021/05/05 11:27:45;;;;;;;10.23;1.60;;;10.50;72.70;;;;;;5134113;27;20068;-68
2021/05/05 11:30:39;;;;;;;7.57;2.10;;;10.30;73.10;;;;;;5134004;27;20058;-67
2021/05/05 11:33:06;;;;;;;10.60;2.40;;;9.80;75.20;;;;;;5129339;27;20043;-68
2021/05/05 11:35:34;;;;;;;12.90;2.27;;;9.50;77.30;;;;;;5133956;27;20054;-68
2021/05/05 11:38:07;;;;;;;10.47;2.27;;;9.40;78.20;;;;;;5133116;27;20049;-67
2021/05/05 11:40:33;;;;;;;6.37;2.17;;;9.40;79.30;;;;;;5132578;27;20301;-67
2021/05/05 11:42:59;;;;;;;15.03;2.57;;;9.40;79.40;;;;;;5133696;27;20306;-68
2021/05/05 11:45:24;;;;;;;11.87;2.83;;;9.50;79.80;;;;;;5131789;27;20051;-67
2021/05/05 11:47:50;;;;;;;11.60;2.67;;;9.70;79.70;;;;;;5133211;27;20055;-67
2021/05/05 11:50:22;;;;;;;9.70;2.30;;;9.90;78.60;;;;;;5133453;27;20043;-67
2021/05/05 11:52:51;;;;;;;19.63;3.40;;;10.20;78.30;;;;;;5132681;27;20487;-68
2021/05/05 11:55:29;;;;;;;12.23;2.97;;;10.60;77.60;;;;;;5133338;27;20043;-69
2021/05/05 11:57:57;;;;;;;12.13;2.20;;;10.70;74.60;;;;;;5131833;27;20043;-68
2021/05/05 12:00:26;;;;;;;8.03;2.20;;;11.00;74.00;;;;;;5133211;27;20047;-69
2021/05/05 12:03:04;;;;;;;11.77;2.83;;;11.20;71.20;;;;;;5133379;27;20050;-68
2021/05/05 12:05:30;;;;;;;15.13;3.03;;;11.40;69.50;;;;;;5132402;27;20450;-68
2021/05/05 12:08:19;;;;;;;10.73;2.13;;;11.50;68.80;;;;;;5132950;27;20054;-69
2021/05/05 12:10:51;;;;;;;16.00;2.80;;;11.50;66.90;;;;;;5129921;27;20042;-68
2021/05/05 12:13:21;;;;;;;;;;;11.50;66.80;;;;;;5132305;27;20054;-68
2021/05/05 12:18:25;;;;;;;15.23;3.05;;;11.50;67.10;;;;;;5132544;27;20054;-71
2021/05/05 12:20:51;;;;;;;10.77;2.37;;;11.60;65.90;;;;;;5132025;27;20067;-70
2021/05/05 12:23:16;;;;;;;8.50;2.07;;;11.50;64.30;;;;;;5133019;27;20128;-73
2021/05/05 12:25:43;;;;;;;10.63;2.20;;;11.20;63.60;;;;;;5132192;27;20043;-72
2021/05/05 12:28:12;;;;;;;12.00;2.17;;;11.00;63.70;;;;;;5133404;27;20646;-71
2021/05/05 12:30:52;;;;;;;12.63;2.60;;;11.00;64.60;;;;;;5133472;27;20078;-71
2021/05/05 12:33:32;;;;;;;11.53;2.57;;;11.10;64.30;;;;;;5132173;27;20054;-72
2021/05/05 12:35:59;;;;;;;15.60;2.70;;;11.20;65.10;;;;;;5132634;27;20130;-73
2021/05/05 12:38:26;;;;;;;15.33;2.80;;;11.30;64.30;;;;;;5132396;27;20453;-73
2021/05/05 12:41:00;;;;;;;13.63;3.23;;;11.10;64.40;;;;;;5132163;27;20043;-73
2021/05/05 12:43:27;;;;;;;12.40;2.70;;;11.10;64.10;;;;;;5132470;27;20061;-73
2021/05/05 12:45:55;;;;;;;10.33;2.37;;;11.20;64.50;;;;;;5132438;27;20103;-73
2021/05/05 12:48:22;;;;;;;13.03;2.53;;;11.40;64.40;;;;;;5131515;27;20414;-72
2021/05/05 12:50:49;;;;;;;15.03;3.10;;;11.40;63.90;;;;;;5132074;27;20043;-71
2021/05/05 12:53:15;;;;;;;11.80;2.40;;;11.40;64.70;;;;;;5132453;27;20055;-71
2021/05/05 12:55:42;;;;;;;9.70;2.33;;;11.40;65.50;;;;;;5131588;27;20514;-72
2021/05/05 12:58:14;;;;;;;13.27;3.70;;;11.30;65.40;;;;;;5132600;27;20054;-71
2021/05/05 13:00:51;;;;;;;16.07;3.43;;;11.20;66.30;;;;;;5132497;27;20487;-73
2021/05/05 13:03:20;;;;;;;15.10;2.87;;;11.20;66.60;;;;;;5130799;27;20118;-72
2021/05/05 13:06:05;;;;;;;19.37;3.50;;;11.20;66.50;;;;;;5132355;27;20054;-72
2021/05/05 13:08:47;;;;;;;17.70;2.87;;;11.20;66.30;;;;;;5131273;27;20392;-71
2021/05/05 13:11:31;;;;;;;13.38;3.70;;;11.20;65.00;;;;;;5132225;27;20116;-74
2021/05/05 13:14:37;;;;;;;16.13;3.20;;;11.20;62.70;;;;;;5132528;27;20167;-72
2021/05/05 13:33:05;;;;;;;21.70;3.60;;;11.20;61.80;;;;;;5132162;27;20047;-72
2021/05/05 13:35:51;;;;;;;14.50;3.60;;;11.20;60.90;;;;;;5132037;28;20050;-73
2021/05/05 13:38:32;;;;;;;17.23;4.10;;;11.30;61.80;;;;;;5131455;28;20054;-72
2021/05/05 13:41:02;;;;;;;16.65;3.67;;;11.60;61.40;;;;;;5131766;28;20081;-72
2021/05/05 13:48:44;;;;;;;12.73;2.93;;;12.00;60.00;;;;;;5132326;28;20094;-72
2021/05/05 13:51:12;;;;;;;15.00;2.83;;;12.00;60.50;;;;;;5131520;27;20096;-73
2021/05/05 13:53:38;;;;;;;16.63;3.00;;;12.10;60.60;;;;;;5132499;28;20083;-72
2021/05/05 13:56:05;;;;;;;15.87;3.10;;;12.00;60.80;;;;;;5131546;27;20047;-71
2021/05/05 13:58:32;;;;;;;17.57;3.93;;;11.80;61.50;;;;;;5130787;28;20130;-71
2021/05/05 14:00:58;;;;;;;11.50;3.23;;;11.50;61.80;;;;;;5131569;28;20463;-70
2021/05/05 14:03:23;;;;;;;18.97;3.93;;;11.30;63.50;;;;;;5131949;28;20138;-71
2021/05/05 14:05:54;;;;;;;14.17;2.63;;;11.20;64.10;;;;;;5131007;28;20076;-71
2021/05/05 14:08:19;;;;;;;8.40;2.30;;;11.10;63.10;;;;;;5131882;28;20051;-70
2021/05/05 14:10:45;;;;;;;12.17;2.30;;;11.00;62.50;;;;;;5131700;28;20047;-71
2021/05/05 14:13:11;;;;;;;9.27;2.23;;;11.10;61.90;;;;;;5131228;28;20175;-71
2021/05/05 14:15:38;;;;;;;12.70;3.07;;;11.10;61.30;;;;;;5131623;28;20039;-71